Time;durP1;ratioP1;P1;durP2;ratioP2;P2;SDS_P1;SDS_P2;PMS_P1;PMS_P2;Temp;Humidity;BMP_temperature;BMP_pressure;BME280_temperature;BME280_humidity;BME280_pressure;Samples;Min_cycle;Max_cycle;Signal;HPM_P1;HPM_P2
2023/04/09 00:01:55;;;;;;;54.22;48.35;;;;;;;9.32;94.82;102463.16;5008928;28;20058;-76
2023/04/09 00:04:23;;;;;;;54.70;48.45;;;;;;;9.30;95.32;102465.00;5004191;28;20493;-77
2023/04/09 00:06:49;;;;;;;55.40;49.40;;;;;;;9.31;95.37;102464.09;5005623;28;20494;-76
2023/04/09 00:09:15;;;;;;;56.45;50.25;;;;;;;9.30;94.83;102459.75;5008649;28;20029;-77
2023/04/09 00:11:41;;;;;;;56.50;50.40;;;;;;;9.31;95.15;102464.09;5009265;28;20030;-76
2023/04/09 00:14:07;;;;;;;61.22;52.28;;;;;;;9.30;95.20;102456.28;5009270;28;20026;-76
2023/04/09 00:16:32;;;;;;;56.75;50.45;;;;;;;9.29;95.32;102450.19;5009535;28;20025;-76
2023/04/09 00:18:58;;;;;;;56.75;50.53;;;;;;;9.29;94.91;102451.94;5009810;28;20022;-76
2023/04/09 00:21:23;;;;;;;56.60;50.50;;;;;;;9.31;95.26;102453.59;5007228;28;20433;-76
2023/04/09 00:23:49;;;;;;;57.03;50.83;;;;;;;9.28;95.65;102453.72;4994449;28;20050;-76
2023/04/09 00:26:15;;;;;;;55.63;49.63;;;;;;;9.28;95.92;102452.88;4989775;28;20061;-76
2023/04/09 00:28:41;;;;;;;54.38;48.05;;;;;;;9.29;96.49;102449.31;5001012;28;20036;-76
2023/04/09 00:31:06;;;;;;;54.03;48.17;;;;;;;9.27;96.38;102446.75;5008871;28;20037;-76
2023/04/09 00:33:32;;;;;;;51.90;46.20;;;;;;;9.27;96.43;102445.91;5008134;28;20026;-76
2023/04/09 00:36:00;;;;;;;51.03;45.40;;;;;;;9.29;96.95;102447.53;5008847;28;20441;-76
2023/04/09 00:38:25;;;;;;;49.97;44.63;;;;;;;9.27;97.08;102446.75;5009084;28;20463;-76
2023/04/09 00:40:51;;;;;;;48.22;42.47;;;;;;;9.29;97.23;102444.91;5007293;28;20132;-75
2023/04/09 00:43:17;;;;;;;46.20;41.20;;;;;;;9.28;97.07;102452.88;5008307;28;20038;-76
2023/04/09 00:45:43;;;;;;;44.70;39.92;;;;;;;9.27;97.03;102445.91;5008406;28;20018;-76
2023/04/09 00:48:10;;;;;;;45.08;40.38;;;;;;;9.24;97.40;102441.63;5008754;28;20026;-76
2023/04/09 00:50:35;;;;;;;43.70;39.15;;;;;;;9.25;97.74;102443.34;5007892;28;20430;-76
2023/04/09 00:53:01;;;;;;;44.58;39.97;;;;;;;9.23;98.25;102447.81;5007942;28;20022;-78
2023/04/09 00:55:27;;;;;;;43.35;38.85;;;;;;;9.21;98.31;102439.16;5008553;28;20029;-76
2023/04/09 00:57:53;;;;;;;43.08;38.58;;;;;;;9.23;98.03;102441.72;4994698;28;20030;-76
2023/04/09 01:00:18;;;;;;;43.50;38.88;;;;;;;9.22;98.28;102443.47;5011620;28;20401;-78
2023/04/09 01:02:44;;;;;;;41.22;36.95;;;;;;;9.20;98.16;102440.03;5012145;28;20022;-78
2023/04/09 01:05:10;;;;;;;41.38;37.03;;;;;;;9.20;98.92;102434.78;5010776;28;20053;-76
2023/04/09 01:07:53;;;;;;;40.40;36.25;;;;;;;9.20;99.39;102437.41;5013314;28;20021;-77
2023/04/09 01:10:23;;;;;;;;;;;;;;;9.29;97.56;102431.78;5009016;28;20030;-78
2023/04/09 01:13:07;;;;;;;39.90;35.60;;;;;;;9.16;98.65;102430.59;5000115;28;19914;-78
2023/04/09 01:15:38;;;;;;;38.90;34.90;;;;;;;9.17;99.42;102432.28;5009447;28;20032;-78
2023/04/09 01:18:33;;;;;;;38.40;34.40;;;;;;;9.17;99.59;102423.56;5011410;28;20042;-78
2023/04/09 01:21:08;;;;;;;37.58;33.78;;;;;;;9.13;99.89;102422.84;5012563;28;20430;-78
2023/04/09 01:23:50;;;;;;;37.70;33.83;;;;;;;9.13;99.87;102422.00;5011230;28;20072;-76
2023/04/09 01:26:35;;;;;;;38.33;34.42;;;;;;;9.08;100.00;102425.66;5008254;28;20033;-76
2023/04/09 01:29:04;;;;;;;36.85;33.05;;;;;;;9.09;100.00;102422.13;5011140;28;20045;-76
2023/04/09 01:31:33;;;;;;;37.60;33.67;;;;;;;9.08;100.00;102425.66;5011511;28;20034;-76
2023/04/09 01:33:59;;;;;;;38.88;34.88;;;;;;;9.09;100.00;102423.88;5011217;28;20033;-76
2023/04/09 01:36:26;;;;;;;38.17;34.28;;;;;;;9.06;100.00;102421.41;5012079;28;20056;-77
2023/04/09 01:38:52;;;;;;;38.08;34.13;;;;;;;9.05;100.00;102420.53;5013011;28;20422;-77
2023/04/09 01:41:21;;;;;;;38.13;34.15;;;;;;;9.03;100.00;102416.28;5011362;28;20048;-76
2023/04/09 01:43:49;;;;;;;38.95;34.88;;;;;;;9.02;100.00;102425.06;5025924;28;20537;-76
2023/04/09 01:46:16;;;;;;;39.97;35.40;;;;;;;9.03;100.00;102416.28;5007898;28;20036;-76
2023/04/09 01:48:42;;;;;;;38.42;34.42;;;;;;;9.03;100.00;102418.91;5012552;28;20538;-76
2023/04/09 01:51:08;;;;;;;38.05;34.08;;;;;;;9.03;100.00;102413.66;5011186;28;20038;-76
2023/04/09 01:53:35;;;;;;;38.85;33.72;;;;;;;9.03;100.00;102411.03;5010257;28;20371;-76
2023/04/09 01:56:01;;;;;;;39.75;35.47;;;;;;;9.02;100.00;102417.19;5008950;28;20501;-78
2023/04/09 01:58:26;;;;;;;38.28;34.20;;;;;;;9.02;100.00;102412.81;5011402;28;20112;-77
2023/04/09 02:00:58;;;;;;;38.28;34.10;;;;;;;9.02;100.00;102419.81;5011070;28;20505;-76
2023/04/09 02:03:30;;;;;;;38.63;34.40;;;;;;;9.02;100.00;102415.44;5008386;28;20464;-76
2023/04/09 02:06:04;;;;;;;40.75;34.72;;;;;;;9.01;100.00;102423.38;5011286;28;20018;-76
2023/04/09 02:08:33;;;;;;;39.22;35.03;;;;;;;8.98;100.00;102418.25;5009708;28;20109;-76
2023/04/09 02:11:02;;;;;;;39.88;35.67;;;;;;;8.99;100.00;102415.56;5011815;28;20026;-76
2023/04/09 02:13:31;;;;;;;38.83;34.75;;;;;;;9.00;100.00;102408.53;5011148;28;20080;-76
2023/04/09 02:15:58;;;;;;;40.28;35.97;;;;;;;9.01;100.00;102416.34;5010909;28;20083;-78
2023/04/09 02:18:27;;;;;;;40.08;35.78;;;;;;;8.98;100.00;102413.00;5009688;28;20022;-78
2023/04/09 02:20:57;;;;;;;39.97;35.67;;;;;;;8.98;100.00;102419.09;4993007;28;20061;-78
2023/04/09 02:23:23;;;;;;;41.75;36.53;;;;;;;8.99;100.00;102406.81;4991256;28;20022;-76
2023/04/09 02:25:49;;;;;;;44.42;38.05;;;;;;;8.98;100.00;102407.75;4992373;28;20030;-78
2023/04/09 02:28:14;;;;;;;41.38;36.47;;;;;;;8.99;100.00;102406.81;5005650;28;20030;-76
2023/04/09 02:30:40;;;;;;;42.63;36.75;;;;;;;8.95;100.00;102405.25;5027257;28;20434;-76
2023/04/09 02:33:06;;;;;;;43.00;38.33;;;;;;;8.97;100.00;102406.03;5010582;28;20474;-76
2023/04/09 02:35:32;;;;;;;44.45;38.92;;;;;;;8.96;100.00;102405.19;5009517;28;20041;-76
2023/04/09 02:37:58;;;;;;;44.40;39.35;;;;;;;8.93;100.00;102405.31;5020813;28;20163;-77
2023/04/09 02:40:23;;;;;;;44.10;39.22;;;;;;;8.94;100.00;102400.91;5010388;28;20037;-76
2023/04/09 02:42:50;;;;;;;44.92;39.72;;;;;;;8.94;100.00;102399.16;5010763;28;20470;-76
2023/04/09 02:45:16;;;;;;;45.00;40.10;;;;;;;8.94;100.00;102395.69;5009013;28;20430;-76
2023/04/09 02:47:41;;;;;;;45.10;40.03;;;;;;;8.96;100.00;102399.09;5011000;28;20026;-76
2023/04/09 02:50:07;;;;;;;44.72;39.10;;;;;;;8.97;100.00;102401.66;5008546;28;20586;-76
2023/04/09 02:52:32;;;;;;;44.88;39.92;;;;;;;8.94;100.00;102393.06;5009064;28;20306;-76
2023/04/09 02:54:58;;;;;;;45.92;40.72;;;;;;;8.93;100.00;102391.34;5010663;28;20391;-77
2023/04/09 02:57:24;;;;;;;47.92;41.40;;;;;;;8.94;100.00;102395.69;5008769;28;20033;-76
2023/04/09 02:59:50;;;;;;;47.97;41.33;;;;;;;8.95;100.00;102392.13;5011156;28;20403;-76
2023/04/09 03:02:15;;;;;;;47.58;40.35;;;;;;;8.93;100.00;102386.09;5009610;28;20056;-76
2023/04/09 03:04:41;;;;;;;52.78;43.63;;;;;;;8.90;100.00;102389.69;5010279;28;20036;-76
2023/04/09 03:07:07;;;;;;;45.90;40.53;;;;;;;8.89;100.00;102387.16;5008389;28;20497;-77
2023/04/09 03:09:32;;;;;;;51.15;42.83;;;;;;;8.91;100.00;102390.56;5004760;28;20719;-76
2023/04/09 03:11:58;;;;;;;49.85;42.35;;;;;;;8.89;100.00;102388.00;5010209;28;20022;-76
2023/04/09 03:14:24;;;;;;;50.55;42.85;;;;;;;8.87;100.00;102378.47;5009027;28;20084;-76
2023/04/09 03:16:49;;;;;;;53.83;44.45;;;;;;;8.89;100.00;102381.91;5010866;28;20402;-76
2023/04/09 03:19:14;;;;;;;53.78;43.33;;;;;;;8.85;100.00;102386.41;5008315;28;20075;-76
2023/04/09 03:21:40;;;;;;;52.72;43.65;;;;;;;8.85;100.00;102380.31;5010337;28;20034;-76
2023/04/09 03:24:06;;;;;;;53.25;44.30;;;;;;;8.84;100.00;102383.88;5009331;28;20088;-77
2023/04/09 03:26:35;;;;;;;53.20;44.17;;;;;;;8.81;100.00;102379.59;5005745;28;20383;-76
2023/04/09 03:29:03;;;;;;;55.75;44.53;;;;;;;8.79;100.00;102376.16;4991310;28;20058;-76
2023/04/09 03:31:29;;;;;;;54.30;44.42;;;;;;;8.76;100.00;102374.50;5010990;28;20498;-77
2023/04/09 03:33:54;;;;;;;53.58;44.58;;;;;;;8.79;100.00;102370.91;5009758;28;20022;-77
2023/04/09 03:36:20;;;;;;;55.92;45.95;;;;;;;8.77;100.00;102378.84;5009985;28;20029;-77
2023/04/09 03:38:46;;;;;;;53.70;44.00;;;;;;;8.76;100.00;102369.25;5010150;28;20615;-76
2023/04/09 03:41:11;;;;;;;53.85;45.00;;;;;;;8.74;100.00;102368.47;5009335;28;20046;-76
2023/04/09 03:43:36;;;;;;;56.97;45.78;;;;;;;8.75;100.00;102369.31;5009120;28;20475;-76
2023/04/09 03:46:11;;;;;;;58.38;46.22;;;;;;;8.76;100.00;102371.03;4990146;28;20486;-76
2023/04/09 03:48:36;;;;;;;53.35;44.88;;;;;;;8.76;100.00;102371.88;5003090;28;20048;-76
2023/04/09 03:51:04;;;;;;;56.28;45.78;;;;;;;8.73;100.00;102363.28;5009580;28;20026;-75
2023/04/09 03:53:30;;;;;;;56.30;46.15;;;;;;;8.72;100.00;102369.47;5010042;28;20112;-76
2023/04/09 03:55:55;;;;;;;55.17;45.63;;;;;;;8.71;100.00;102368.59;5009798;28;20101;-76
2023/04/09 03:58:20;;;;;;;54.90;46.53;;;;;;;8.69;100.00;102357.31;5008794;28;20687;-76
2023/04/09 04:00:46;;;;;;;57.47;45.90;;;;;;;8.69;100.00;102367.81;5008119;28;20041;-76
2023/04/09 04:03:13;;;;;;;56.05;46.17;;;;;;;8.64;100.00;102367.16;5008608;28;20014;-76
2023/04/09 04:05:39;;;;;;;55.58;46.67;;;;;;;8.67;100.00;102367.03;5024538;28;20061;-76
2023/04/09 04:08:05;;;;;;;55.70;45.10;;;;;;;8.63;100.00;102361.97;5008083;28;20040;-76
2023/04/09 04:10:32;;;;;;;53.33;44.33;;;;;;;8.62;100.00;102366.38;5011524;28;20021;-76
2023/04/09 04:12:58;;;;;;;52.05;41.92;;;;;;;8.57;100.00;102362.25;5009673;28;20061;-76
2023/04/09 04:15:23;;;;;;;50.50;43.05;;;;;;;8.57;100.00;102368.34;5007988;28;20081;-76
2023/04/09 04:17:49;;;;;;;53.03;43.88;;;;;;;8.58;100.00;102371.81;5008237;28;20021;-76
2023/04/09 04:20:15;;;;;;;52.97;42.97;;;;;;;8.56;100.00;102368.41;5008669;28;20025;-77
2023/04/09 04:22:40;;;;;;;52.47;42.83;;;;;;;8.54;100.00;102365.84;5009429;28;20089;-76
2023/04/09 04:25:05;;;;;;;54.97;44.95;;;;;;;8.52;100.00;102372.91;5009334;28;20091;-77
2023/04/09 04:27:31;;;;;;;52.88;43.70;;;;;;;8.51;100.00;102365.97;5024069;28;20029;-76
2023/04/09 04:30:00;;;;;;;53.60;43.55;;;;;;;8.49;100.00;102367.81;5007773;28;20483;-76
2023/04/09 04:32:27;;;;;;;51.78;43.10;;;;;;;8.45;100.00;102366.22;5028044;28;20025;-76
2023/04/09 04:34:52;;;;;;;53.40;44.67;;;;;;;8.40;100.00;102357.66;5011441;28;20064;-77
2023/04/09 04:37:18;;;;;;;52.08;42.40;;;;;;;8.39;100.00;102367.28;5013197;28;20030;-76
2023/04/09 04:39:46;;;;;;;50.05;41.85;;;;;;;8.31;100.00;102363.25;5025960;28;20022;-76
2023/04/09 04:42:12;;;;;;;50.10;41.67;;;;;;;8.31;100.00;102369.34;5011476;28;20076;-76
2023/04/09 04:44:37;;;;;;;51.53;41.53;;;;;;;8.25;100.00;102363.50;5011732;28;20486;-76
2023/04/09 04:47:02;;;;;;;54.20;43.03;;;;;;;8.24;100.00;102367.03;5027803;28;20034;-78
2023/04/09 04:49:29;;;;;;;51.78;43.53;;;;;;;8.20;100.00;102368.94;5012097;28;20131;-78
2023/04/09 04:51:55;;;;;;;54.10;43.55;;;;;;;8.16;100.00;102370.81;5013935;28;20036;-78
2023/04/09 04:54:20;;;;;;;53.67;43.92;;;;;;;8.11;100.00;102372.78;5010430;28;20030;-78
2023/04/09 04:56:45;;;;;;;53.60;43.30;;;;;;;8.08;100.00;102377.28;5012715;28;20475;-78
2023/04/09 04:59:11;;;;;;;52.08;43.05;;;;;;;7.98;100.00;102373.28;5013665;28;20037;-78
2023/04/09 05:01:37;;;;;;;53.95;43.50;;;;;;;7.94;100.00;102372.56;5013846;28;20026;-78
2023/04/09 05:04:06;;;;;;;57.08;45.08;;;;;;;7.88;100.00;102374.56;5011699;28;20022;-77
2023/04/09 05:06:32;;;;;;;54.13;43.20;;;;;;;7.83;100.00;102372.13;5012435;28;20033;-78
2023/04/09 05:08:57;;;;;;;54.00;42.38;;;;;;;7.74;100.00;102367.25;5015978;28;20390;-78
2023/04/09 05:11:24;;;;;;;48.78;41.38;;;;;;;7.67;100.00;102374.47;5013334;28;20022;-78
2023/04/09 05:13:50;;;;;;;48.55;40.03;;;;;;;7.63;100.00;102367.66;5013580;28;20044;-77
2023/04/09 05:16:19;;;;;;;51.75;40.65;;;;;;;7.57;100.00;102372.22;5012480;28;20029;-78
2023/04/09 05:18:45;;;;;;;48.53;40.13;;;;;;;7.51;100.00;102368.06;5011503;28;20026;-77
2023/04/09 05:21:11;;;;;;;50.15;40.72;;;;;;;7.48;100.00;102376.91;5011373;28;20030;-77
2023/04/09 05:23:36;;;;;;;50.03;40.08;;;;;;;7.46;100.00;102378.72;5028545;28;20080;-77
2023/04/09 05:26:05;;;;;;;49.95;39.70;;;;;;;7.42;100.00;102371.88;5010954;28;20034;-76
2023/04/09 05:28:32;;;;;;;49.95;40.42;;;;;;;7.36;100.00;102376.50;5009995;28;20037;-76
2023/04/09 05:31:01;;;;;;;50.63;40.33;;;;;;;7.32;100.00;102374.91;5012728;28;20057;-76
2023/04/09 05:33:27;;;;;;;50.28;40.78;;;;;;;7.23;100.00;102379.56;4999473;28;20093;-76
2023/04/09 05:35:52;;;;;;;52.92;40.30;;;;;;;7.27;100.00;102380.31;5017362;28;20506;-76
2023/04/09 05:38:17;;;;;;;52.90;41.28;;;;;;;7.19;100.00;102379.69;5011364;28;20033;-76
2023/04/09 05:40:44;;;;;;;51.42;40.95;;;;;;;7.26;100.00;102375.97;5011503;28;20407;-76
2023/04/09 05:43:10;;;;;;;51.38;41.67;;;;;;;7.29;100.00;102385.50;5009832;28;20469;-76
2023/04/09 05:45:35;;;;;;;50.35;41.08;;;;;;;7.27;100.00;102369.84;5011797;28;20026;-76
2023/04/09 05:48:00;;;;;;;52.55;41.50;;;;;;;7.34;100.00;102373.09;5010968;28;20398;-76
2023/04/09 05:50:26;;;;;;;51.58;41.00;;;;;;;7.32;100.00;102375.75;5012104;28;20379;-76
2023/04/09 05:52:51;;;;;;;52.05;41.38;;;;;;;7.27;100.00;102380.31;5011902;28;20053;-75
2023/04/09 05:55:16;;;;;;;51.45;40.55;;;;;;;7.31;100.00;102384.53;5011832;28;20481;-76
2023/04/09 05:57:44;;;;;;;50.35;40.80;;;;;;;7.31;100.00;102378.44;5011955;28;20110;-76
2023/04/09 06:00:10;;;;;;;49.13;40.80;;;;;;;7.36;100.00;102381.75;5010426;28;20060;-76
2023/04/09 06:02:35;;;;;;;49.17;40.10;;;;;;;7.41;100.00;102387.66;5011816;28;20033;-76
2023/04/09 06:05:01;;;;;;;51.03;40.78;;;;;;;7.38;100.00;102391.25;5011467;28;20022;-76
2023/04/09 06:07:26;;;;;;;48.90;40.15;;;;;;;7.43;100.00;102388.47;5011141;28;20505;-76
2023/04/09 06:09:53;;;;;;;49.67;39.40;;;;;;;7.51;100.00;102397.75;5012425;28;20026;-76
2023/04/09 06:12:19;;;;;;;53.58;40.53;;;;;;;7.46;100.00;102393.59;5011655;28;20076;-76
2023/04/09 06:14:47;;;;;;;51.67;40.85;;;;;;;7.43;100.00;102394.53;5010783;28;20486;-76
2023/04/09 06:17:12;;;;;;;49.92;40.33;;;;;;;7.48;100.00;102392.63;5026719;28;20018;-76
2023/04/09 06:19:38;;;;;;;51.00;39.67;;;;;;;7.50;100.00;102385.56;5012095;28;20014;-76
2023/04/09 06:22:03;;;;;;;49.15;39.30;;;;;;;7.57;100.00;102390.56;5009172;28;20053;-76
2023/04/09 06:24:32;;;;;;;47.90;39.28;;;;;;;7.55;100.00;102394.09;5024750;28;20113;-76
2023/04/09 06:26:57;;;;;;;49.13;39.22;;;;;;;7.67;100.00;102397.19;5011300;28;20034;-76
2023/04/09 06:29:22;;;;;;;49.17;39.70;;;;;;;7.73;100.00;102391.72;5012222;28;20156;-76
2023/04/09 06:31:49;;;;;;;46.67;38.78;;;;;;;7.79;100.00;102396.72;5010641;28;20061;-76
2023/04/09 06:34:15;;;;;;;48.00;38.45;;;;;;;7.84;100.00;102389.56;5008218;28;20373;-76
2023/04/09 06:36:42;;;;;;;48.20;38.70;;;;;;;7.88;100.00;102401.63;5009350;28;20038;-76
2023/04/09 06:39:08;;;;;;;50.58;40.08;;;;;;;7.92;100.00;102399.72;5010323;28;20034;-76
2023/04/09 06:41:33;;;;;;;51.35;39.60;;;;;;;7.98;100.00;102407.38;5028927;28;20057;-76
2023/04/09 06:44:08;;;;;;;47.95;39.35;;;;;;;8.09;99.83;102400.81;5030877;28;20060;-76
2023/04/09 06:46:33;;;;;;;51.00;40.45;;;;;;;8.17;99.15;102411.00;5010736;28;20026;-76
2023/04/09 06:49:00;;;;;;;45.97;38.85;;;;;;;8.20;98.54;102405.63;5025403;28;20121;-76
2023/04/09 06:51:25;;;;;;;49.55;38.95;;;;;;;8.27;98.62;102404.47;5008704;28;20029;-76
2023/04/09 06:53:51;;;;;;;46.15;38.70;;;;;;;8.34;97.03;102403.34;5010245;28;20072;-76
2023/04/09 06:56:17;;;;;;;46.70;39.63;;;;;;;8.43;96.85;102400.38;5008068;28;20033;-76
2023/04/09 06:58:43;;;;;;;44.55;38.20;;;;;;;8.38;96.50;102412.81;5029098;28;20030;-76
2023/04/09 07:01:09;;;;;;;46.83;39.30;;;;;;;8.42;97.03;102409.16;5036778;28;20037;-76
2023/04/09 07:03:34;;;;;;;47.97;38.90;;;;;;;8.49;97.43;102407.16;5008636;28;20034;-76
2023/04/09 07:06:00;;;;;;;44.83;38.05;;;;;;;8.52;96.88;102409.66;5009584;28;20038;-75
2023/04/09 07:08:27;;;;;;;45.47;39.15;;;;;;;8.60;96.06;102410.19;5010125;28;20038;-76
2023/04/09 07:10:52;;;;;;;44.38;38.10;;;;;;;8.61;95.40;102414.50;5010158;28;20491;-76
2023/04/09 07:13:17;;;;;;;47.30;38.92;;;;;;;8.79;95.26;102412.91;5009857;28;20053;-77
2023/04/09 07:15:44;;;;;;;46.40;38.30;;;;;;;8.88;94.59;102409.91;5011059;28;20026;-76
2023/04/09 07:18:09;;;;;;;46.33;37.72;;;;;;;8.94;93.74;102401.78;5009428;28;20105;-76
2023/04/09 07:20:35;;;;;;;45.05;38.30;;;;;;;9.09;93.89;102406.38;5010251;28;20109;-75
2023/04/09 07:23:00;;;;;;;45.85;38.85;;;;;;;9.10;93.14;102410.69;5008405;28;20041;-76
2023/04/09 07:25:27;;;;;;;46.38;38.88;;;;;;;9.24;92.20;102406.66;5009434;28;20040;-76
2023/04/09 07:27:52;;;;;;;45.70;38.28;;;;;;;9.34;91.84;102411.44;5014109;28;20018;-76
2023/04/09 07:30:18;;;;;;;43.65;36.75;;;;;;;9.59;92.12;102412.94;5011422;28;20376;-78
2023/04/09 07:32:43;;;;;;;45.20;37.83;;;;;;;9.90;90.82;102409.78;5009770;28;20053;-77
2023/04/09 07:35:10;;;;;;;42.45;37.53;;;;;;;10.11;89.11;102408.81;5008102;28;20038;-78
2023/04/09 07:37:35;;;;;;;41.72;36.88;;;;;;;10.19;88.39;102416.34;5010041;28;20475;-78
2023/04/09 07:40:02;;;;;;;44.97;37.22;;;;;;;10.24;87.19;102411.75;5013877;28;20037;-77
2023/04/09 07:42:30;;;;;;;46.63;37.17;;;;;;;10.27;86.81;102407.19;5016980;28;20451;-79
2023/04/09 07:44:56;;;;;;;42.67;36.53;;;;;;;10.32;85.96;102412.22;5009277;28;20042;-78
2023/04/09 07:47:22;;;;;;;48.97;36.85;;;;;;;10.27;85.79;102411.59;5009342;28;20034;-78
2023/04/09 07:49:47;;;;;;;41.75;36.22;;;;;;;10.56;86.40;102405.78;5007976;28;20034;-77
2023/04/09 07:52:13;;;;;;;41.03;36.08;;;;;;;10.62;84.96;102405.47;5009455;28;20148;-77
2023/04/09 07:54:39;;;;;;;41.15;36.13;;;;;;;10.76;83.92;102401.31;5010995;28;20044;-78
2023/04/09 07:57:05;;;;;;;41.03;36.53;;;;;;;10.89;84.80;102402.41;5016504;28;20029;-77
2023/04/09 07:59:31;;;;;;;40.28;35.47;;;;;;;10.95;84.08;102407.38;5010795;28;20024;-77
2023/04/09 08:01:57;;;;;;;40.25;35.40;;;;;;;11.15;82.97;102409.81;5010610;28;20029;-77
2023/04/09 08:04:22;;;;;;;41.67;36.15;;;;;;;11.32;82.81;102400.22;4996736;28;20040;-77
2023/04/09 08:06:50;;;;;;;40.50;36.13;;;;;;;11.53;82.13;102407.84;5008186;28;20030;-77
2023/04/09 08:09:17;;;;;;;39.53;35.22;;;;;;;11.59;80.94;102409.28;5017708;28;20061;-78
2023/04/09 08:11:44;;;;;;;40.85;36.35;;;;;;;11.95;80.17;102403.00;5010113;28;20022;-78
2023/04/09 08:14:11;;;;;;;41.58;36.58;;;;;;;12.14;78.63;102401.91;5008160;28;20427;-76
2023/04/09 08:16:44;;;;;;;40.28;35.90;;;;;;;12.01;77.20;102405.28;5009295;28;20113;-78
2023/04/09 08:19:11;;;;;;;41.13;36.63;;;;;;;12.13;77.85;102400.22;5006171;28;20433;-77
2023/04/09 08:21:38;;;;;;;40.97;36.58;;;;;;;12.09;77.21;102403.13;5007166;28;20458;-77
2023/04/09 08:24:04;;;;;;;41.35;36.88;;;;;;;12.16;77.67;102407.09;5006858;28;20030;-77
2023/04/09 08:26:31;;;;;;;42.83;38.15;;;;;;;12.05;77.86;102418.25;5008201;28;20052;-77
2023/04/09 08:28:56;;;;;;;41.55;37.15;;;;;;;12.12;77.90;102413.50;5009427;28;20547;-77
2023/04/09 08:31:22;;;;;;;41.80;37.40;;;;;;;12.15;76.58;102402.78;5010238;28;20593;-77
2023/04/09 08:33:47;;;;;;;40.85;36.45;;;;;;;12.13;76.11;102409.91;5026654;28;20022;-77
2023/04/09 08:36:12;;;;;;;41.53;37.03;;;;;;;12.06;76.75;102398.00;5009186;28;20030;-78
2023/04/09 08:38:39;;;;;;;41.60;37.10;;;;;;;12.09;78.17;102397.84;5010190;28;20030;-78
2023/04/09 08:41:17;;;;;;;41.90;36.75;;;;;;;12.19;79.34;102396.38;5008762;28;20053;-78
2023/04/09 08:43:45;;;;;;;44.03;38.00;;;;;;;12.37;77.14;102392.69;5024308;28;20116;-76
2023/04/09 08:46:11;;;;;;;41.90;37.35;;;;;;;12.80;75.22;102391.06;5008198;28;20394;-77
2023/04/09 08:48:41;;;;;;;43.08;37.13;;;;;;;13.06;75.08;102397.47;5009516;28;20068;-77
2023/04/09 08:51:06;;;;;;;40.88;36.03;;;;;;;13.34;72.98;102385.28;5009484;28;20028;-78
2023/04/09 08:53:32;;;;;;;39.75;35.65;;;;;;;13.26;72.87;102390.19;5011014;28;20018;-78
2023/04/09 08:55:58;;;;;;;40.83;36.53;;;;;;;13.29;72.48;102390.84;5009798;28;20026;-77
2023/04/09 08:58:24;;;;;;;40.10;35.78;;;;;;;13.44;73.02;102386.41;5009416;28;20030;-78
2023/04/09 09:00:49;;;;;;;39.65;35.35;;;;;;;13.74;72.16;102383.66;5008879;28;20467;-78
2023/04/09 09:03:18;;;;;;;39.58;35.42;;;;;;;13.80;70.37;102383.28;5009695;28;20686;-77
2023/04/09 09:05:45;;;;;;;40.25;35.90;;;;;;;13.74;70.06;102389.81;5009114;28;20080;-77
2023/04/09 09:08:13;;;;;;;40.10;35.80;;;;;;;13.93;71.06;102392.13;5009306;28;20489;-77
2023/04/09 09:10:40;;;;;;;40.70;36.28;;;;;;;13.86;69.24;102382.88;5009559;28;20017;-77
2023/04/09 09:13:26;;;;;;;39.55;35.42;;;;;;;13.93;69.79;102384.19;5007819;28;20212;-78
2023/04/09 09:16:11;;;;;;;39.35;35.13;;;;;;;13.76;71.38;102381.78;5008467;28;20041;-77
2023/04/09 09:18:42;;;;;;;41.05;35.90;;;;;;;13.46;70.61;102382.72;5009833;28;20124;-78
2023/04/09 09:21:12;;;;;;;38.35;34.15;;;;;;;13.59;70.07;102390.75;5012531;28;20084;-78
2023/04/09 09:23:38;;;;;;;37.53;33.60;;;;;;;13.54;69.25;102387.53;5027994;28;20045;-77
2023/04/09 09:26:19;;;;;;;36.03;32.15;;;;;;;13.53;71.16;102396.41;5012411;28;20127;-78
2023/04/09 09:28:46;;;;;;;37.88;33.83;;;;;;;13.65;70.57;102385.09;5013440;28;20029;-78
2023/04/09 09:31:11;;;;;;;38.63;34.40;;;;;;;13.82;69.46;102381.38;5011623;28;20033;-77
2023/04/09 09:33:37;;;;;;;36.53;32.63;;;;;;;13.82;69.31;102375.25;5012422;28;20068;-78
2023/04/09 09:36:03;;;;;;;38.78;34.70;;;;;;;14.17;68.90;102376.50;4996618;28;20030;-78
2023/04/09 09:38:29;;;;;;;37.58;33.58;;;;;;;14.75;68.37;102372.66;4993880;28;20023;-78
2023/04/09 09:40:55;;;;;;;31.95;28.60;;;;;;;14.93;63.27;102365.28;4993855;28;20514;-78
2023/04/09 09:43:20;;;;;;;31.08;27.83;;;;;;;15.09;63.23;102370.38;4993301;28;20169;-78
2023/04/09 09:45:46;;;;;;;33.00;29.42;;;;;;;15.12;63.34;102370.19;4992518;28;20010;-78
2023/04/09 09:48:12;;;;;;;32.38;28.98;;;;;;;14.91;63.02;102362.75;4991823;28;20486;-78
2023/04/09 09:50:42;;;;;;;33.60;30.00;;;;;;;15.40;63.99;102359.38;5009492;28;20034;-78
2023/04/09 09:53:10;;;;;;;38.03;32.35;;;;;;;15.54;60.76;102353.91;5010358;28;20509;-78
2023/04/09 09:55:39;;;;;;;36.33;32.40;;;;;;;15.88;59.73;102351.53;4993290;28;20486;-78
2023/04/09 09:58:31;;;;;;;34.38;29.98;;;;;;;16.78;60.39;102343.03;4992863;28;20033;-78
2023/04/09 10:00:57;;;;;;;29.27;26.17;;;;;;;17.68;54.14;102340.50;4992869;28;20462;-78
2023/04/09 10:03:29;;;;;;;28.48;25.55;;;;;;;18.31;52.82;102338.88;4993340;28;20081;-78
2023/04/09 10:05:55;;;;;;;27.27;24.48;;;;;;;19.80;48.51;102339.34;4992836;28;20092;-78
2023/04/09 10:08:22;;;;;;;26.17;23.35;;;;;;;20.98;44.00;102332.06;5004334;28;20061;-77
2023/04/09 10:10:49;;;;;;;18.73;16.85;;;;;;;21.19;43.37;102326.47;5027743;28;20474;-78
2023/04/09 10:13:30;;;;;;;21.42;19.13;;;;;;;20.34;43.74;102324.63;5026479;28;20033;-77
2023/04/09 10:15:56;;;;;;;13.98;12.57;;;;;;;21.39;40.52;102316.56;5024435;28;20028;-78
2023/04/09 10:18:22;;;;;;;19.80;17.70;;;;;;;21.99;39.29;102319.59;5026730;28;20076;-77
2023/04/09 10:21:16;;;;;;;19.63;17.58;;;;;;;20.46;42.92;102328.91;5010258;28;20022;-76
2023/04/09 10:23:44;;;;;;;20.42;18.33;;;;;;;19.65;42.97;102322.03;5011928;28;20026;-76
2023/04/09 10:26:09;;;;;;;17.90;16.02;;;;;;;18.36;44.64;102318.00;5005688;28;20421;-76
2023/04/09 10:28:38;;;;;;;19.17;17.30;;;;;;;17.97;46.67;102315.00;4991143;28;20113;-76
2023/04/09 10:31:05;;;;;;;19.77;17.75;;;;;;;18.83;45.20;102313.22;4991360;28;20026;-76
2023/04/09 10:33:31;;;;;;;18.27;16.48;;;;;;;17.84;45.74;102307.19;4991360;28;20026;-75
2023/04/09 10:36:09;;;;;;;18.67;16.23;;;;;;;18.26;47.46;102309.94;4992135;28;20549;-76
2023/04/09 10:38:37;;;;;;;19.50;17.50;;;;;;;19.23;46.04;102311.47;4992401;28;20061;-76
2023/04/09 10:41:21;;;;;;;19.48;16.20;;;;;;;19.98;45.49;102292.25;4990989;28;20081;-76
2023/04/09 10:43:47;;;;;;;18.35;16.55;;;;;;;19.71;43.05;102294.78;5010682;28;20088;-76
2023/04/09 10:46:28;;;;;;;18.30;16.42;;;;;;;19.98;45.56;102289.59;5011194;28;20092;-76
2023/04/09 10:49:19;;;;;;;18.77;16.77;;;;;;;19.55;46.46;102300.63;5011246;28;20108;-77
2023/04/09 10:52:02;;;;;;;20.58;18.58;;;;;;;18.39;46.48;102291.09;5012059;28;20022;-76
2023/04/09 10:54:44;;;;;;;19.58;17.48;;;;;;;17.86;49.27;102293.75;5026319;28;20124;-76
2023/04/09 10:57:15;;;;;;;;;;;;;;;18.08;49.45;102290.16;5011499;28;20386;-76
2023/04/09 10:59:46;;;;;;;17.50;15.73;;;;;;;17.13;47.35;102289.81;5004545;28;19917;-76
2023/04/09 11:02:30;;;;;;;18.55;16.45;;;;;;;16.99;50.39;102289.19;4990583;28;20030;-76
2023/04/09 11:05:20;;;;;;;18.85;16.85;;;;;;;17.09;50.95;102285.69;4991918;28;20133;-76
2023/04/09 11:07:56;;;;;;;20.27;18.23;;;;;;;17.06;48.97;102280.63;5001007;28;20067;-76
2023/04/09 11:10:22;;;;;;;19.33;17.38;;;;;;;16.95;49.19;102277.97;5008414;28;20021;-76
2023/04/09 11:12:53;;;;;;;20.45;18.38;;;;;;;16.99;49.43;102278.56;5026281;28;20101;-76
2023/04/09 11:15:19;;;;;;;23.25;20.10;;;;;;;16.85;49.30;102274.31;5009021;28;20033;-76